Time;durP1;ratioP1;P1;durP2;ratioP2;P2;SDS_P1;SDS_P2;PMS_P1;PMS_P2;Temp;Humidity;BMP_temperature;BMP_pressure;BME280_temperature;BME280_humidity;BME280_pressure;Samples;Min_cycle;Max_cycle;Signal;HPM_P1;HPM_P2
2023/12/28 00:01:47;;;;;;;18.58;9.85;;;;;;;8.39;73.53;100996.47;5143609;27;20352;-68
2023/12/28 00:04:12;;;;;;;13.63;8.88;;;;;;;8.56;73.43;101001.28;5142889;27;20035;-68
2023/12/28 00:06:38;;;;;;;19.23;10.32;;;;;;;8.61;72.41;100994.69;5143670;27;20031;-65
2023/12/28 00:09:03;;;;;;;16.63;9.35;;;;;;;8.70;72.38;101002.84;5143088;27;20027;-65
2023/12/28 00:11:29;;;;;;;18.73;10.82;;;;;;;8.81;71.61;101000.22;5142782;27;20041;-66
2023/12/28 00:13:55;;;;;;;22.00;11.30;;;;;;;8.82;71.57;101004.53;5142729;27;20073;-66
2023/12/28 00:16:20;;;;;;;31.80;16.27;;;;;;;8.92;71.05;101014.25;5143676;27;20039;-65
2023/12/28 00:18:45;;;;;;;20.13;12.43;;;;;;;8.72;71.26;101014.13;5142806;27;20038;-66
2023/12/28 00:21:11;;;;;;;26.77;16.77;;;;;;;8.73;70.64;101021.94;5143435;27;20045;-67
2023/12/28 00:23:36;;;;;;;31.67;19.48;;;;;;;8.65;71.22;101026.97;5142576;27;20147;-65
2023/12/28 00:26:02;;;;;;;28.52;16.73;;;;;;;8.50;71.35;101025.50;5143054;27;20228;-68
2023/12/28 00:28:28;;;;;;;24.55;18.48;;;;;;;8.39;71.77;101026.31;5143428;27;20031;-66
2023/12/28 00:30:53;;;;;;;31.08;23.30;;;;;;;8.25;72.60;101029.09;5142382;27;20070;-66
2023/12/28 00:33:18;;;;;;;24.48;18.13;;;;;;;8.41;72.30;101031.50;5141764;27;20066;-68
2023/12/28 00:35:44;;;;;;;25.90;17.25;;;;;;;8.43;70.98;101033.06;5143016;27;20269;-66
2023/12/28 00:38:09;;;;;;;20.85;15.68;;;;;;;8.39;71.17;101039.53;5143002;27;20433;-68
2023/12/28 00:40:35;;;;;;;21.02;14.05;;;;;;;8.49;71.43;101040.50;5142439;27;20038;-67
2023/12/28 00:43:00;;;;;;;16.77;12.82;;;;;;;8.48;70.86;101041.47;5141483;27;20049;-68
2023/12/28 00:45:26;;;;;;;22.08;14.15;;;;;;;8.57;70.37;101046.03;5142032;27;20035;-67
2023/12/28 00:47:52;;;;;;;21.50;13.68;;;;;;;8.20;70.45;101042.66;5142321;27;20031;-66
2023/12/28 00:50:17;;;;;;;17.75;11.68;;;;;;;8.29;69.24;101044.59;5143199;27;20198;-67
2023/12/28 00:52:43;;;;;;;16.50;10.68;;;;;;;8.37;69.12;101052.00;5142757;27;20082;-66
2023/12/28 00:55:10;;;;;;;16.90;9.63;;;;;;;8.40;69.58;101057.03;5142959;27;20057;-66
2023/12/28 00:57:35;;;;;;;12.43;9.15;;;;;;;8.32;70.39;101059.34;5142473;27;20337;-65
2023/12/28 01:00:01;;;;;;;16.67;10.07;;;;;;;8.24;71.43;101065.22;5142568;27;20049;-68
2023/12/28 01:02:27;;;;;;;15.63;9.55;;;;;;;8.33;71.01;101071.66;5141935;27;20046;-67
2023/12/28 01:04:52;;;;;;;16.15;8.93;;;;;;;8.23;71.07;101074.09;5141801;27;20266;-67
2023/12/28 01:07:18;;;;;;;15.00;9.48;;;;;;;8.17;71.49;101082.44;5142126;27;20221;-67
2023/12/28 01:09:43;;;;;;;17.05;10.25;;;;;;;8.23;70.71;101078.53;5142234;27;20027;-66
2023/12/28 01:12:09;;;;;;;18.80;11.95;;;;;;;7.82;66.38;101073.66;5141973;27;20038;-65
2023/12/28 01:14:34;;;;;;;14.48;8.82;;;;;;;7.76;66.99;101084.66;5141857;27;20351;-67
2023/12/28 01:17:00;;;;;;;14.60;8.82;;;;;;;7.74;68.20;101081.28;5140953;27;20039;-67
2023/12/28 01:19:25;;;;;;;13.20;8.45;;;;;;;7.44;66.36;101090.44;5141631;27;20023;-65
2023/12/28 01:21:50;;;;;;;13.00;7.75;;;;;;;7.56;65.79;101089.56;5141329;27;20229;-67
2023/12/28 01:24:16;;;;;;;15.63;8.95;;;;;;;7.52;66.50;101071.44;5141201;27;20084;-68
2023/12/28 01:26:41;;;;;;;16.17;8.23;;;;;;;7.49;64.79;101082.22;5141907;27;20043;-67
2023/12/28 01:29:07;;;;;;;11.90;8.60;;;;;;;7.43;65.10;101085.28;5141961;27;20039;-67
2023/12/28 01:31:32;;;;;;;47.70;21.67;;;;;;;7.42;66.63;101088.88;5141656;27;20393;-67
2023/12/28 01:33:58;;;;;;;23.20;9.63;;;;;;;7.41;66.85;101080.13;5141389;27;20046;-65
2023/12/28 01:36:23;;;;;;;13.20;7.60;;;;;;;7.04;67.00;101076.56;5141963;27;20341;-67
2023/12/28 01:38:49;;;;;;;13.40;8.10;;;;;;;6.85;66.22;101073.53;5141325;27;20209;-65
2023/12/28 01:41:15;;;;;;;11.18;7.00;;;;;;;7.01;66.45;101072.38;5141861;27;20077;-67
2023/12/28 01:43:43;;;;;;;12.13;7.72;;;;;;;7.07;65.79;101072.88;5141133;27;20220;-67
2023/12/28 01:46:15;;;;;;;11.90;7.70;;;;;;;6.99;65.61;101074.25;5141461;27;20260;-65
2023/12/28 01:48:42;;;;;;;11.38;6.82;;;;;;;7.02;66.25;101075.84;5140903;27;20019;-65
2023/12/28 01:51:07;;;;;;;13.02;7.10;;;;;;;6.92;66.71;101074.78;5141143;27;20035;-66
2023/12/28 01:53:33;;;;;;;9.75;6.70;;;;;;;6.99;66.81;101076.91;5141645;27;20084;-66
2023/12/28 01:55:59;;;;;;;17.70;10.18;;;;;;;6.99;66.88;101070.78;5141648;27;20047;-67
2023/12/28 01:58:28;;;;;;;16.25;8.63;;;;;;;7.06;67.68;101074.69;5141048;27;20035;-66
2023/12/28 02:00:56;;;;;;;11.20;7.60;;;;;;;6.82;67.99;101082.50;5140590;27;20043;-68
2023/12/28 02:03:22;;;;;;;13.00;7.35;;;;;;;6.63;67.17;101082.91;5141022;27;20367;-67
2023/12/28 02:05:47;;;;;;;13.43;7.05;;;;;;;6.58;68.47;101085.00;5141107;27;20039;-65
2023/12/28 02:08:13;;;;;;;12.93;6.80;;;;;;;6.67;69.01;101081.75;5140880;27;20051;-66
2023/12/28 02:10:39;;;;;;;11.70;7.03;;;;;;;6.41;68.85;101082.66;5140965;27;20304;-67
2023/12/28 02:13:05;;;;;;;9.55;6.25;;;;;;;6.39;70.39;101076.66;5141079;27;20264;-65
2023/12/28 02:15:30;;;;;;;10.85;6.95;;;;;;;6.36;70.52;101082.13;5140612;27;20381;-65
2023/12/28 02:18:05;;;;;;;10.50;6.30;;;;;;;6.24;71.59;101082.91;5140972;27;20262;-67
2023/12/28 02:20:31;;;;;;;14.02;7.13;;;;;;;6.28;71.21;101082.66;5140880;27;20039;-65
2023/12/28 02:22:57;;;;;;;9.77;6.75;;;;;;;6.53;70.51;101086.25;5140895;27;20046;-67
2023/12/28 02:25:23;;;;;;;10.73;6.22;;;;;;;6.61;70.06;101086.59;5140415;27;20536;-67
2023/12/28 02:27:49;;;;;;;9.30;6.72;;;;;;;6.75;69.90;101089.13;5140519;27;20031;-66
2023/12/28 02:30:29;;;;;;;14.32;8.18;;;;;;;6.91;68.90;101084.50;5140407;27;20083;-65
2023/12/28 02:33:15;;;;;;;14.18;6.88;;;;;;;6.96;68.05;101085.00;5139319;27;20030;-65
2023/12/28 02:35:55;;;;;;;11.95;7.38;;;;;;;7.10;67.62;101086.69;5139569;27;20035;-67
2023/12/28 02:38:23;;;;;;;13.13;7.55;;;;;;;6.86;68.53;101083.13;5139585;27;20030;-67
2023/12/28 02:40:49;;;;;;;13.82;8.05;;;;;;;6.78;68.84;101095.97;5139322;27;20039;-67
2023/12/28 02:43:15;;;;;;;13.13;8.73;;;;;;;6.93;68.01;101098.38;5139258;27;20359;-66
2023/12/28 02:45:40;;;;;;;14.50;7.57;;;;;;;7.06;67.56;101098.38;5139302;27;20035;-66
2023/12/28 02:48:06;;;;;;;11.95;8.27;;;;;;;7.10;67.95;101097.22;5139342;27;20031;-66
2023/12/28 02:50:33;;;;;;;14.98;8.13;;;;;;;7.10;67.96;101099.84;5139416;27;20275;-66
2023/12/28 02:52:59;;;;;;;17.25;8.88;;;;;;;7.07;67.59;101099.22;5140481;27;20062;-68
2023/12/28 02:55:25;;;;;;;14.95;8.40;;;;;;;7.12;68.04;101110.28;5140483;27;20199;-67
2023/12/28 02:57:54;;;;;;;13.25;8.43;;;;;;;7.17;67.18;101100.28;5139446;27;20105;-68
2023/12/28 03:00:20;;;;;;;12.55;7.47;;;;;;;7.26;67.38;101103.09;5140644;27;20042;-68
2023/12/28 03:02:46;;;;;;;16.95;10.20;;;;;;;7.33;66.56;101096.47;5139737;27;20725;-67
2023/12/28 03:05:11;;;;;;;12.93;8.85;;;;;;;7.35;66.56;101093.75;5140148;27;20225;-66
2023/12/28 03:07:37;;;;;;;16.27;9.15;;;;;;;7.28;66.70;101095.97;5140211;27;20041;-67
2023/12/28 03:10:03;;;;;;;16.48;9.88;;;;;;;7.14;67.70;101087.31;5140102;27;20046;-66
2023/12/28 03:12:30;;;;;;;15.68;9.80;;;;;;;7.20;64.63;101098.25;5139866;27;20061;-67
2023/12/28 03:14:56;;;;;;;14.40;9.50;;;;;;;7.16;64.61;101090.69;5139712;27;20087;-65
2023/12/28 03:17:21;;;;;;;17.88;9.55;;;;;;;7.09;64.59;101094.69;5139601;27;20284;-65
2023/12/28 03:19:47;;;;;;;17.05;10.55;;;;;;;7.02;65.94;101095.13;5138984;27;20037;-67
2023/12/28 03:22:12;;;;;;;17.95;9.70;;;;;;;6.83;66.07;101089.44;5139690;27;20031;-67
2023/12/28 03:24:38;;;;;;;17.02;9.88;;;;;;;6.75;66.10;101090.91;5139525;27;20068;-68
2023/12/28 03:27:06;;;;;;;15.10;9.43;;;;;;;6.82;66.33;101086.91;5139346;27;20031;-67
2023/12/28 03:29:33;;;;;;;17.35;10.57;;;;;;;6.76;66.40;101084.69;5139240;27;20031;-65
2023/12/28 03:31:59;;;;;;;16.35;10.15;;;;;;;6.79;67.28;101084.50;5140108;27;20100;-66
2023/12/28 03:34:26;;;;;;;16.15;10.50;;;;;;;6.90;67.12;101082.81;5139293;28;20225;-66
2023/12/28 03:36:52;;;;;;;17.38;9.32;;;;;;;6.97;66.84;101072.69;5140070;27;20035;-66
2023/12/28 03:39:17;;;;;;;15.90;9.30;;;;;;;7.02;66.65;101073.22;5139501;28;20206;-66
2023/12/28 03:41:42;;;;;;;17.20;9.15;;;;;;;7.00;66.39;101081.22;5138823;28;20099;-65
2023/12/28 03:44:08;;;;;;;16.42;10.88;;;;;;;6.76;67.35;101082.06;5138689;28;20039;-65
2023/12/28 03:46:33;;;;;;;16.35;10.57;;;;;;;6.64;68.42;101097.75;5138651;28;20045;-65
2023/12/28 03:48:59;;;;;;;21.23;12.52;;;;;;;6.59;69.55;101099.84;5138325;28;20060;-66
2023/12/28 03:51:24;;;;;;;26.42;18.05;;;;;;;6.39;70.37;101095.94;5138607;28;20043;-65
2023/12/28 03:53:50;;;;;;;17.42;10.32;;;;;;;6.17;70.43;101100.03;5138478;28;20388;-68
2023/12/28 03:56:23;;;;;;;17.63;10.38;;;;;;;6.38;69.80;101096.88;5138490;28;20065;-67
2023/12/28 03:58:49;;;;;;;18.05;10.88;;;;;;;6.52;69.74;101092.47;5138047;28;20031;-66
2023/12/28 04:01:15;;;;;;;15.20;10.05;;;;;;;6.33;69.96;101092.84;5139229;28;20489;-65
2023/12/28 04:03:40;;;;;;;20.45;11.63;;;;;;;6.44;68.81;101087.72;5138987;28;20488;-67
2023/12/28 04:06:07;;;;;;;15.32;11.45;;;;;;;6.49;69.05;101088.25;5139346;28;20046;-66
2023/12/28 04:08:32;;;;;;;13.77;10.65;;;;;;;6.55;68.19;101093.09;5139036;28;20043;-65
2023/12/28 04:10:57;;;;;;;27.35;19.70;;;;;;;6.46;69.20;101085.00;5139040;28;20039;-65
2023/12/28 04:13:23;;;;;;;26.15;18.42;;;;;;;6.20;70.59;101087.53;5138599;28;20039;-67
2023/12/28 04:15:48;;;;;;;33.00;23.20;;;;;;;6.06;70.66;101090.22;5138710;28;20053;-67
2023/12/28 04:18:14;;;;;;;20.98;12.95;;;;;;;5.81;71.41;101101.47;5138658;28;20302;-65
2023/12/28 04:20:42;;;;;;;18.55;12.73;;;;;;;5.84;72.05;101100.41;5138233;28;20035;-65
2023/12/28 04:23:07;;;;;;;18.80;12.82;;;;;;;6.02;70.91;101097.47;5138336;28;20045;-66
2023/12/28 04:25:33;;;;;;;23.55;12.80;;;;;;;6.17;65.22;101090.38;5139258;28;20043;-65
2023/12/28 04:27:58;;;;;;;25.95;12.75;;;;;;;6.11;68.23;101101.28;5139464;28;20027;-66
2023/12/28 04:30:24;;;;;;;17.58;9.20;;;;;;;5.85;70.33;101100.31;5139460;28;20049;-67
2023/12/28 04:32:49;;;;;;;9.98;6.65;;;;;;;5.76;71.43;101103.53;5139092;28;20024;-65
2023/12/28 04:35:15;;;;;;;11.68;6.47;;;;;;;5.39;72.96;101115.53;5138733;28;20382;-67
2023/12/28 04:37:40;;;;;;;14.23;7.00;;;;;;;5.34;73.68;101117.59;5138904;28;20317;-67
2023/12/28 04:40:06;;;;;;;29.27;20.63;;;;;;;5.41;74.31;101111.03;5141106;27;20389;-65
2023/12/28 04:42:31;;;;;;;23.05;17.80;;;;;;;5.26;74.56;101115.44;5142320;27;20394;-65
2023/12/28 04:44:57;;;;;;;14.80;9.45;;;;;;;5.47;73.75;101112.44;5141928;27;20043;-65
2023/12/28 04:47:22;;;;;;;9.00;5.13;;;;;;;5.59;72.54;101107.25;5141645;27;20047;-65
2023/12/28 04:49:48;;;;;;;9.15;4.88;;;;;;;5.61;72.88;101115.88;5142220;27;20039;-67
2023/12/28 04:52:13;;;;;;;9.20;4.97;;;;;;;5.66;73.09;101115.59;5142724;27;20038;-67
2023/12/28 04:54:42;;;;;;;8.23;4.72;;;;;;;5.75;72.34;101100.06;5142925;27;20043;-67
2023/12/28 04:57:10;;;;;;;10.40;4.82;;;;;;;5.83;72.30;101111.88;5141842;27;20043;-67
2023/12/28 04:59:39;;;;;;;8.85;6.13;;;;;;;5.73;71.84;101111.63;5142369;27;20356;-65
2023/12/28 05:02:04;;;;;;;13.85;7.32;;;;;;;5.58;71.10;101110.81;5142176;27;20244;-65
2023/12/28 05:04:30;;;;;;;15.13;9.70;;;;;;;5.67;69.42;101112.00;5142253;27;20031;-65
2023/12/28 05:06:57;;;;;;;15.52;9.05;;;;;;;5.72;67.28;101108.16;5141839;27;20122;-68
2023/12/28 05:09:22;;;;;;;21.30;11.10;;;;;;;5.69;68.18;101108.34;5142657;27;20027;-68
2023/12/28 05:11:47;;;;;;;13.00;8.73;;;;;;;5.63;66.29;101111.38;5141503;27;20317;-67
2023/12/28 05:14:13;;;;;;;15.75;9.85;;;;;;;5.66;68.11;101105.06;5141163;27;20057;-67
2023/12/28 05:16:38;;;;;;;12.27;9.43;;;;;;;5.71;68.42;101098.59;5142497;27;20035;-67
2023/12/28 05:19:04;;;;;;;14.73;8.52;;;;;;;5.83;69.09;101110.09;5141813;27;20047;-66
2023/12/28 05:21:29;;;;;;;20.58;10.02;;;;;;;5.76;68.02;101111.44;5142024;27;20039;-65
2023/12/28 05:23:55;;;;;;;16.30;10.20;;;;;;;5.59;68.13;101114.28;5142160;27;20035;-65
2023/12/28 05:26:20;;;;;;;16.77;9.48;;;;;;;5.09;70.74;101112.97;5142467;27;20035;-67
2023/12/28 05:28:46;;;;;;;16.35;10.25;;;;;;;5.28;70.47;101113.56;5141066;27;20039;-65
2023/12/28 05:31:13;;;;;;;18.63;10.13;;;;;;;5.44;71.07;101119.56;5141588;27;20059;-67
2023/12/28 05:33:38;;;;;;;15.73;9.93;;;;;;;5.41;69.77;101114.50;5141946;27;20286;-67
2023/12/28 05:36:04;;;;;;;15.02;9.30;;;;;;;5.62;69.28;101117.56;5142026;27;20038;-66
2023/12/28 05:38:30;;;;;;;15.88;9.95;;;;;;;5.75;68.90;101115.84;5141715;27;20039;-65
2023/12/28 05:40:55;;;;;;;18.15;12.05;;;;;;;5.82;67.71;101124.19;5141974;27;20215;-67
2023/12/28 05:43:21;;;;;;;20.73;12.15;;;;;;;5.78;67.65;101125.31;5141574;27;20224;-66
2023/12/28 05:45:46;;;;;;;20.98;13.70;;;;;;;5.33;67.08;101126.41;5141873;27;20035;-68
2023/12/28 05:48:11;;;;;;;22.95;14.68;;;;;;;5.38;68.02;101126.97;5141156;27;20043;-69
2023/12/28 05:50:37;;;;;;;19.02;14.02;;;;;;;5.52;69.66;101129.59;5140857;27;20041;-65
2023/12/28 05:53:03;;;;;;;14.93;10.15;;;;;;;5.60;68.98;101132.56;5141038;27;20046;-65
2023/12/28 05:55:28;;;;;;;14.15;7.65;;;;;;;5.13;69.98;101136.34;5141035;27;20042;-67
2023/12/28 05:57:53;;;;;;;14.48;7.47;;;;;;;4.62;69.04;101136.81;5141431;27;20327;-65
2023/12/28 06:00:19;;;;;;;12.43;6.32;;;;;;;4.72;70.80;101130.94;5141707;27;20331;-65
2023/12/28 06:02:46;;;;;;;14.32;6.68;;;;;;;4.80;71.46;101123.47;5141332;27;20051;-67
2023/12/28 06:05:12;;;;;;;25.13;17.48;;;;;;;4.86;71.20;101114.38;5140706;27;20031;-66
2023/12/28 06:07:37;;;;;;;20.75;10.35;;;;;;;5.08;71.12;101125.25;5140032;27;20273;-67
2023/12/28 06:10:04;;;;;;;20.00;8.35;;;;;;;5.16;70.20;101122.16;5140746;27;20039;-65
2023/12/28 06:12:29;;;;;;;12.40;9.70;;;;;;;5.17;70.40;101123.00;5140949;27;20047;-69
2023/12/28 06:14:55;;;;;;;16.35;10.82;;;;;;;5.32;70.56;101129.97;5141209;27;20082;-66
2023/12/28 06:17:20;;;;;;;22.35;9.25;;;;;;;5.48;69.29;101132.50;5140986;27;20382;-67
2023/12/28 06:19:46;;;;;;;10.18;5.57;;;;;;;5.33;69.89;101129.88;5140491;27;20370;-67
2023/12/28 06:22:11;;;;;;;11.45;8.75;;;;;;;5.42;69.95;101131.09;5140424;27;20460;-67
2023/12/28 06:24:40;;;;;;;12.32;5.72;;;;;;;5.54;69.41;101129.50;5140836;27;20229;-67
2023/12/28 06:27:05;;;;;;;9.40;5.70;;;;;;;5.69;69.54;101139.88;5140809;27;20248;-67
2023/12/28 06:29:31;;;;;;;10.80;7.63;;;;;;;5.77;69.27;101147.28;5140695;27;20042;-64
2023/12/28 06:31:56;;;;;;;10.70;6.10;;;;;;;5.79;68.91;101153.28;5140492;27;20043;-68
2023/12/28 06:34:22;;;;;;;14.57;5.70;;;;;;;5.83;68.23;101162.66;5140977;27;20039;-69
2023/12/28 06:36:47;;;;;;;11.63;5.93;;;;;;;5.90;68.35;101164.00;5140728;27;20035;-69
2023/12/28 06:39:13;;;;;;;14.05;8.50;;;;;;;5.85;68.86;101163.41;5140200;27;20326;-67
2023/12/28 06:41:39;;;;;;;27.13;14.60;;;;;;;5.81;69.53;101167.19;5140981;27;20027;-67
2023/12/28 06:44:04;;;;;;;27.20;15.48;;;;;;;5.89;69.42;101157.06;5140714;27;20035;-67
2023/12/28 06:46:29;;;;;;;20.33;11.75;;;;;;;6.01;70.26;101161.53;5140256;27;20027;-65
2023/12/28 06:48:55;;;;;;;18.67;11.98;;;;;;;6.12;70.66;101152.94;5139092;27;20043;-67
2023/12/28 06:51:21;;;;;;;11.80;8.48;;;;;;;6.26;70.88;101160.81;5139323;27;20267;-65
2023/12/28 06:53:48;;;;;;;14.50;10.73;;;;;;;6.33;70.90;101153.38;5139205;27;20345;-67
2023/12/28 06:56:14;;;;;;;20.75;12.85;;;;;;;6.47;70.50;101155.94;5140502;27;20091;-66
2023/12/28 06:58:40;;;;;;;22.25;13.38;;;;;;;6.51;71.06;101159.19;5140422;27;20031;-66
2023/12/28 07:01:05;;;;;;;25.95;14.98;;;;;;;6.49;71.79;101150.56;5140482;27;20046;-66
2023/12/28 07:03:32;;;;;;;25.67;15.00;;;;;;;6.58;72.24;101157.84;5139424;27;20043;-68
2023/12/28 07:06:03;;;;;;;24.55;15.38;;;;;;;6.69;72.95;101155.34;5139881;27;20039;-69
2023/12/28 07:08:28;;;;;;;29.10;17.38;;;;;;;6.83;72.03;101157.88;5140138;27;20043;-67
2023/12/28 07:10:54;;;;;;;36.75;19.52;;;;;;;6.91;71.86;101149.47;5140155;27;20329;-68
2023/12/28 07:13:19;;;;;;;34.33;20.63;;;;;;;7.04;71.34;101150.31;5139468;27;20080;-69
2023/12/28 07:15:45;;;;;;;31.33;19.05;;;;;;;7.16;69.62;101156.53;5140140;27;20031;-69
2023/12/28 07:18:11;;;;;;;28.67;17.95;;;;;;;7.23;68.58;101160.44;5139357;27;20045;-67
2023/12/28 07:20:36;;;;;;;22.52;16.33;;;;;;;7.35;68.37;101167.50;5139589;27;20031;-68
2023/12/28 07:23:02;;;;;;;23.50;16.48;;;;;;;7.59;68.74;101162.31;5140118;27;20043;-67
2023/12/28 07:25:28;;;;;;;22.95;14.95;;;;;;;7.74;67.79;101158.59;5140031;27;20043;-68
2023/12/28 07:27:53;;;;;;;16.80;10.40;;;;;;;7.98;67.24;101163.91;5139549;27;20056;-66
2023/12/28 07:30:19;;;;;;;12.75;7.72;;;;;;;8.20;66.45;101165.81;5139516;27;20352;-64
2023/12/28 07:32:47;;;;;;;13.23;7.50;;;;;;;8.29;64.94;101166.00;5139574;27;20385;-66
2023/12/28 07:35:13;;;;;;;10.00;7.25;;;;;;;8.36;64.78;101163.81;5139746;27;20042;-66
2023/12/28 07:37:38;;;;;;;9.30;6.82;;;;;;;8.51;64.29;101169.75;5139276;27;20084;-66
2023/12/28 07:40:04;;;;;;;13.70;8.35;;;;;;;8.64;63.99;101171.34;5139978;27;20031;-64
2023/12/28 07:42:29;;;;;;;8.98;6.45;;;;;;;8.71;62.12;101174.38;5139482;28;20030;-66
2023/12/28 07:44:55;;;;;;;7.70;6.47;;;;;;;8.72;62.03;101172.56;5139425;28;20039;-67
2023/12/28 07:47:21;;;;;;;15.90;8.63;;;;;;;8.85;62.17;101173.34;5138929;28;20032;-66
2023/12/28 07:49:46;;;;;;;19.05;11.38;;;;;;;8.91;61.51;101170.22;5139722;28;20324;-64
2023/12/28 07:52:11;;;;;;;18.88;11.77;;;;;;;9.05;62.00;101166.53;5138726;28;20336;-66
2023/12/28 07:54:37;;;;;;;49.33;21.13;;;;;;;9.06;61.46;101176.97;5138616;28;20214;-66
2023/12/28 07:57:03;;;;;;;14.35;8.77;;;;;;;8.86;62.12;101175.84;5138782;28;20039;-66
2023/12/28 07:59:28;;;;;;;12.05;7.22;;;;;;;8.82;62.39;101171.78;5139288;28;20091;-66
2023/12/28 08:01:53;;;;;;;11.93;7.32;;;;;;;8.81;63.12;101171.88;5139229;28;20349;-66
2023/12/28 08:04:19;;;;;;;14.52;7.18;;;;;;;8.88;62.83;101165.19;5138821;28;20325;-65
2023/12/28 08:06:44;;;;;;;10.68;7.45;;;;;;;8.87;63.18;101166.13;5139154;28;20329;-64
2023/12/28 08:09:10;;;;;;;16.95;9.60;;;;;;;8.67;65.33;101167.63;5138551;28;20232;-64
2023/12/28 08:11:35;;;;;;;13.25;8.15;;;;;;;9.00;64.64;101166.03;5139574;28;20038;-65
2023/12/28 08:14:01;;;;;;;16.27;8.40;;;;;;;9.25;65.02;101173.75;5139817;27;20043;-64
2023/12/28 08:16:27;;;;;;;12.27;7.95;;;;;;;9.40;65.59;101174.41;5143537;27;20043;-68
2023/12/28 08:18:52;;;;;;;22.40;9.35;;;;;;;9.56;65.08;101178.38;5142998;27;20035;-66
2023/12/28 08:21:18;;;;;;;15.63;7.35;;;;;;;9.71;65.08;101175.47;5143194;27;20035;-65
2023/12/28 08:23:43;;;;;;;13.75;8.15;;;;;;;9.73;64.69;101182.34;5143262;27;20039;-65
2023/12/28 08:26:10;;;;;;;12.73;8.88;;;;;;;9.84;64.72;101181.47;5143156;27;20095;-69
2023/12/28 08:28:36;;;;;;;13.73;8.20;;;;;;;9.87;64.69;101174.13;5143325;27;20050;-67
2023/12/28 08:31:01;;;;;;;16.05;8.57;;;;;;;9.93;64.74;101170.16;5143330;27;20039;-65
2023/12/28 08:33:27;;;;;;;17.88;9.35;;;;;;;10.11;64.85;101181.06;5142741;27;20376;-66
2023/12/28 08:35:52;;;;;;;28.80;10.60;;;;;;;10.16;64.27;101181.53;5141582;27;20225;-66
2023/12/28 08:38:17;;;;;;;14.75;9.10;;;;;;;10.20;64.72;101170.59;5142248;27;20039;-65
2023/12/28 08:40:44;;;;;;;20.42;11.65;;;;;;;10.26;64.13;101171.91;5142748;27;20043;-67
2023/12/28 08:43:10;;;;;;;18.35;10.70;;;;;;;10.13;64.93;101169.38;5142366;27;20034;-66
2023/12/28 08:45:36;;;;;;;21.35;11.82;;;;;;;9.96;66.09;101164.63;5143042;27;20035;-65
2023/12/28 08:48:01;;;;;;;20.80;12.45;;;;;;;10.18;65.33;101167.22;5142516;27;20084;-66
2023/12/28 08:50:27;;;;;;;19.55;12.50;;;;;;;9.91;66.16;101159.69;5142328;27;20038;-68
2023/12/28 08:52:52;;;;;;;20.30;11.30;;;;;;;10.03;66.14;101151.72;5141760;27;20352;-64
2023/12/28 08:55:18;;;;;;;20.13;11.75;;;;;;;10.07;66.17;101147.88;5141749;27;20039;-65
2023/12/28 08:57:43;;;;;;;18.58;10.63;;;;;;;10.04;66.45;101138.38;5141599;27;20039;-64
2023/12/28 09:00:10;;;;;;;15.65;9.73;;;;;;;10.21;65.39;101135.22;5142243;27;20075;-65
2023/12/28 09:02:35;;;;;;;13.30;9.65;;;;;;;10.30;65.47;101138.09;5142454;27;20297;-66
2023/12/28 09:05:01;;;;;;;14.18;9.18;;;;;;;10.28;65.72;101137.38;5141430;27;20334;-64
2023/12/28 09:07:26;;;;;;;16.92;9.48;;;;;;;10.24;65.93;101132.31;5141604;27;20043;-66
2023/12/28 09:09:52;;;;;;;13.15;8.15;;;;;;;10.33;65.99;101116.66;5142260;27;20228;-64
2023/12/28 09:12:18;;;;;;;11.27;6.63;;;;;;;10.51;64.19;101116.00;5142347;27;20035;-66
2023/12/28 09:14:43;;;;;;;10.82;7.05;;;;;;;10.53;63.82;101121.16;5141944;27;20332;-66
2023/12/28 09:17:09;;;;;;;13.93;8.65;;;;;;;10.42;63.74;101113.28;5141465;27;20069;-66
2023/12/28 09:19:34;;;;;;;10.68;7.93;;;;;;;10.59;63.84;101106.56;5142190;27;20281;-66
2023/12/28 09:22:00;;;;;;;14.02;7.57;;;;;;;10.77;63.77;101099.72;5141827;27;20047;-66
2023/12/28 09:24:25;;;;;;;10.02;6.97;;;;;;;10.78;62.51;101101.38;5141040;27;20137;-66
2023/12/28 09:26:51;;;;;;;12.60;7.72;;;;;;;10.85;62.99;101091.94;5141188;27;20042;-66
2023/12/28 09:29:16;;;;;;;9.55;6.60;;;;;;;10.73;62.55;101090.34;5140722;27;20050;-66
2023/12/28 09:31:42;;;;;;;10.50;6.35;;;;;;;10.61;63.33;101083.44;5141434;27;20031;-67
2023/12/28 09:34:07;;;;;;;11.50;6.45;;;;;;;10.86;62.60;101069.78;5141347;27;20034;-66
2023/12/28 09:36:33;;;;;;;10.93;7.32;;;;;;;10.92;63.15;101065.75;5142001;27;20090;-67
2023/12/28 09:38:58;;;;;;;11.02;5.65;;;;;;;10.88;63.61;101063.38;5141951;27;20218;-65
2023/12/28 09:41:26;;;;;;;8.32;5.78;;;;;;;10.99;63.46;101051.84;5142075;27;20023;-65
2023/12/28 09:44:07;;;;;;;13.43;6.55;;;;;;;10.91;63.51;101049.03;5141498;27;20035;-66
2023/12/28 09:46:32;;;;;;;10.15;5.50;;;;;;;10.62;64.24;101045.38;5142022;27;20341;-64
2023/12/28 09:48:58;;;;;;;16.30;8.55;;;;;;;10.88;63.78;101036.03;5142020;27;20050;-65
2023/12/28 09:51:25;;;;;;;12.10;7.50;;;;;;;10.85;63.93;101041.59;5141297;27;20217;-64
2023/12/28 09:53:51;;;;;;;9.80;5.90;;;;;;;10.79;63.09;101034.19;5141249;27;20072;-66
2023/12/28 09:56:16;;;;;;;8.35;6.47;;;;;;;10.88;63.28;101030.75;5141259;27;20039;-64
2023/12/28 09:58:44;;;;;;;16.65;7.63;;;;;;;11.03;62.91;101032.06;5140710;27;20274;-64
2023/12/28 10:01:10;;;;;;;16.30;7.85;;;;;;;11.17;62.68;101026.38;5140346;27;20337;-66
2023/12/28 10:03:36;;;;;;;15.35;7.30;;;;;;;11.13;61.72;101026.78;5140656;27;20111;-65
2023/12/28 10:06:02;;;;;;;14.55;5.85;;;;;;;10.95;61.97;100984.19;5141108;27;20043;-66
2023/12/28 10:08:27;;;;;;;9.10;6.60;;;;;;;11.19;62.01;101013.84;5141042;27;20357;-64
2023/12/28 10:10:54;;;;;;;8.77;5.45;;;;;;;11.22;60.92;100996.81;5141094;27;20043;-64
2023/12/28 10:13:23;;;;;;;9.40;5.55;;;;;;;11.25;61.70;100995.72;5141055;27;20411;-65
2023/12/28 10:15:49;;;;;;;13.23;6.32;;;;;;;11.12;62.61;100985.34;5141162;27;20035;-66
2023/12/28 10:18:18;;;;;;;11.68;6.50;;;;;;;11.23;62.61;100976.44;5140946;27;20374;-65
2023/12/28 10:20:51;;;;;;;11.55;5.95;;;;;;;11.32;62.16;100984.41;5141543;27;20043;-64
2023/12/28 10:23:23;;;;;;;11.43;5.55;;;;;;;11.30;62.58;100969.63;5140239;27;20057;-64
2023/12/28 10:25:53;;;;;;;12.35;5.80;;;;;;;11.40;62.31;100967.81;5140525;27;20039;-65
2023/12/28 10:28:19;;;;;;;10.63;5.97;;;;;;;11.54;60.85;100969.28;5141203;27;20038;-64
2023/12/28 10:30:45;;;;;;;8.18;5.20;;;;;;;11.58;60.35;100963.53;5140673;27;20098;-66
2023/12/28 10:33:11;;;;;;;9.68;5.15;;;;;;;11.64;60.83;100956.84;5140727;27;20225;-66
2023/12/28 10:35:36;;;;;;;8.52;5.20;;;;;;;11.59;60.19;100959.06;5140511;27;20027;-64
2023/12/28 10:38:04;;;;;;;8.55;4.97;;;;;;;11.47;60.94;100943.28;5139909;27;20042;-66
2023/12/28 10:40:32;;;;;;;7.85;5.43;;;;;;;11.47;62.49;100958.38;5139907;27;20062;-66
2023/12/28 10:43:01;;;;;;;9.68;5.95;;;;;;;11.42;61.08;100940.19;5139225;27;20038;-66
2023/12/28 10:45:29;;;;;;;9.45;4.90;;;;;;;11.52;60.65;100941.06;5139270;27;20042;-64
2023/12/28 10:48:01;;;;;;;6.32;5.18;;;;;;;11.58;60.26;100933.53;5139052;27;20045;-66
2023/12/28 10:50:30;;;;;;;8.50;5.05;;;;;;;11.63;60.24;100929.47;5139589;27;20043;-65
2023/12/28 10:53:05;;;;;;;10.68;5.07;;;;;;;11.76;59.90;100929.19;5140498;27;20043;-65
2023/12/28 10:55:41;;;;;;;9.77;5.43;;;;;;;11.83;60.36;100922.38;5140120;27;20370;-64
2023/12/28 10:58:23;;;;;;;7.43;5.18;;;;;;;11.89;60.36;100920.97;5140485;27;20027;-65
2023/12/28 11:01:00;;;;;;;9.23;5.53;;;;;;;11.83;59.63;100922.38;5140218;27;20031;-66
2023/12/28 11:03:31;;;;;;;12.52;6.63;;;;;;;11.87;59.49;100920.28;5139726;27;20079;-66
2023/12/28 11:05:57;;;;;;;10.98;5.15;;;;;;;11.94;59.62;100914.25;5139954;27;20042;-65
2023/12/28 11:08:23;;;;;;;8.05;5.15;;;;;;;11.67;60.16;100911.47;5139981;27;20039;-66
2023/12/28 11:10:51;;;;;;;8.65;5.97;;;;;;;11.58;60.25;100893.75;5140233;27;20110;-65
2023/12/28 11:13:21;;;;;;;8.18;5.03;;;;;;;11.82;59.37;100905.63;5139645;27;20262;-65
2023/12/28 11:15:47;;;;;;;9.88;5.50;;;;;;;11.86;59.05;100900.03;5139998;27;20296;-65
2023/12/28 11:18:15;;;;;;;9.30;6.15;;;;;;;11.97;60.07;100903.34;5140074;27;20114;-65